createdAt,value
2023-04-03T00:02:15.386Z,64.14
2023-04-03T00:04:42.060Z,64.54
2023-04-03T00:07:08.534Z,64.11
2023-04-03T00:09:34.909Z,64.16
2023-04-03T00:12:02.624Z,63.77
2023-04-03T00:14:29.018Z,64.96
2023-04-03T00:16:55.738Z,64.54
2023-04-03T00:19:22.133Z,65.59
2023-04-03T00:21:48.500Z,65.50
2023-04-03T00:24:14.928Z,65.34
2023-04-03T00:26:41.287Z,65.31
2023-04-03T00:29:08.977Z,65.86
2023-04-03T00:31:35.373Z,65.27
2023-04-03T00:34:01.724Z,64.92
2023-04-03T00:36:28.135Z,63.26
2023-04-03T00:38:55.089Z,64.15
2023-04-03T00:41:21.464Z,65.39
2023-04-03T00:43:48.112Z,64.38
2023-04-03T00:46:15.866Z,63.43
2023-04-03T00:48:44.434Z,63.43
2023-04-03T00:51:15.302Z,64.05
2023-04-03T00:53:47.788Z,65.32
2023-04-03T00:56:17.911Z,65.89
2023-04-03T00:58:49.536Z,65.47
2023-04-03T01:01:22.053Z,65.92
2023-04-03T01:03:48.495Z,66.34
2023-04-03T01:06:18.206Z,65.88
2023-04-03T01:08:45.321Z,65.66
2023-04-03T01:11:11.717Z,67.13
2023-04-03T01:13:38.091Z,66.54
2023-04-03T01:16:05.973Z,67.04
2023-04-03T01:18:35.045Z,67.80
2023-04-03T01:21:31.413Z,67.30
2023-04-03T01:24:07.500Z,67.77
2023-04-03T01:26:34.169Z,67.41
2023-04-03T01:29:00.852Z,66.21
2023-04-03T01:31:32.205Z,67.32
2023-04-03T01:34:00.112Z,67.30
2023-04-03T01:36:28.561Z,66.79
2023-04-03T01:38:55.936Z,67.51
2023-04-03T01:41:23.290Z,67.45
2023-04-03T01:43:50.539Z,67.05
2023-04-03T01:46:17.638Z,66.88
2023-04-03T01:48:44.256Z,68.17
2023-04-03T01:51:12.191Z,67.28
2023-04-03T01:53:38.576Z,68.27
2023-04-03T01:56:05.776Z,66.19
2023-04-03T01:58:32.682Z,66.55
2023-04-03T02:00:59.084Z,64.35
2023-04-03T02:03:25.676Z,63.60
2023-04-03T02:05:52.061Z,65.06
2023-04-03T02:08:19.821Z,64.34
2023-04-03T02:10:48.218Z,65.46
2023-04-03T02:13:14.578Z,66.91
2023-04-03T02:15:41.215Z,64.93
2023-04-03T02:18:08.364Z,65.16
2023-04-03T02:20:35.274Z,65.78
2023-04-03T02:23:01.893Z,65.29
2023-04-03T02:25:31.857Z,65.85
2023-04-03T02:27:58.269Z,65.09
2023-04-03T02:30:24.642Z,64.19
2023-04-03T02:32:51.044Z,64.51
2023-04-03T02:35:17.541Z,65.95
2023-04-03T02:37:43.894Z,67.93
2023-04-03T02:40:10.810Z,66.07
2023-04-03T02:42:38.562Z,65.45
2023-04-03T02:45:06.371Z,64.94
2023-04-03T02:47:32.891Z,64.57
2023-04-03T02:49:59.271Z,64.56
2023-04-03T02:52:25.799Z,65.83
2023-04-03T02:54:52.181Z,64.45
2023-04-03T02:57:18.541Z,65.52
2023-04-03T02:59:46.262Z,65.89
2023-04-03T03:02:12.647Z,67.56
2023-04-03T03:04:39.110Z,68.50
2023-04-03T03:07:05.529Z,66.61
2023-04-03T03:09:31.957Z,68.73
2023-04-03T03:11:58.300Z,68.39
2023-04-03T03:14:24.682Z,69.27
2023-04-03T03:16:52.407Z,67.37
2023-04-03T03:19:18.788Z,68.67
2023-04-03T03:21:45.278Z,69.51
2023-04-03T03:24:11.666Z,68.50
2023-04-03T03:26:38.165Z,69.36
2023-04-03T03:29:04.514Z,70.06
2023-04-03T03:31:31.285Z,70.12
2023-04-03T03:33:59.046Z,69.89
2023-04-03T03:36:25.639Z,68.92
2023-04-03T03:38:52.099Z,70.29
2023-04-03T03:41:18.466Z,71.34
2023-04-03T03:43:44.831Z,70.22
2023-04-03T03:46:11.358Z,69.92
2023-04-03T03:48:37.733Z,69.65
2023-04-03T03:51:05.657Z,70.27
2023-04-03T03:53:32.057Z,70.30
2023-04-03T03:55:58.430Z,70.99
2023-04-03T03:58:24.871Z,69.66
2023-04-03T04:00:51.287Z,71.19
2023-04-03T04:03:17.800Z,69.95
2023-04-03T04:05:44.452Z,69.87
2023-04-03T04:08:12.164Z,69.44
2023-04-03T04:10:39.236Z,72.00
2023-04-03T04:13:05.608Z,72.86
2023-04-03T04:15:31.989Z,73.03
2023-04-03T04:17:58.381Z,73.06
2023-04-03T04:20:24.779Z,73.74
2023-04-03T04:22:51.157Z,73.99
2023-04-03T04:25:19.082Z,73.81
2023-04-03T04:27:45.569Z,72.52
2023-04-03T04:30:13.110Z,72.92
2023-04-03T04:32:39.578Z,71.41
2023-04-03T04:35:06.318Z,72.78
2023-04-03T04:37:32.781Z,73.54
2023-04-03T04:39:59.156Z,73.70
2023-04-03T04:42:26.974Z,72.70
2023-04-03T04:44:53.362Z,73.62
2023-04-03T04:47:19.768Z,73.78
2023-04-03T04:49:46.119Z,74.23
2023-04-03T04:52:12.497Z,73.51
2023-04-03T04:54:38.871Z,73.99
2023-04-03T04:57:05.314Z,73.26
2023-04-03T04:59:33.063Z,71.25
2023-04-03T05:01:59.463Z,72.63
2023-04-03T05:04:25.895Z,71.64
2023-04-03T05:06:52.295Z,71.57
2023-04-03T05:09:18.645Z,70.65
2023-04-03T05:11:44.969Z,70.28
2023-04-03T05:14:11.320Z,70.77
2023-04-03T05:16:39.021Z,71.05
2023-04-03T05:19:05.391Z,71.94
2023-04-03T05:21:31.831Z,72.41
2023-04-03T05:23:58.395Z,71.66
2023-04-03T05:26:24.747Z,70.74
2023-04-03T05:28:51.132Z,72.04
2023-04-03T05:31:17.513Z,71.69
2023-04-03T05:33:45.272Z,72.24
2023-04-03T05:36:11.683Z,72.40
2023-04-03T05:38:38.403Z,71.62
2023-04-03T05:41:05.235Z,73.20
2023-04-03T05:43:31.757Z,69.25
2023-04-03T05:45:58.285Z,69.23
2023-04-03T05:48:24.690Z,72.24
2023-04-03T05:50:52.458Z,72.20
2023-04-03T05:53:22.261Z,71.56
2023-04-03T05:55:48.959Z,73.05
2023-04-03T05:58:15.398Z,72.50
2023-04-03T06:00:41.777Z,72.44
2023-04-03T06:03:08.346Z,72.07
2023-04-03T06:05:34.917Z,70.88
2023-04-03T06:08:03.926Z,69.75
2023-04-03T06:10:30.405Z,71.72
2023-04-03T06:12:56.789Z,72.42
2023-04-03T06:15:23.391Z,72.55
2023-04-03T06:17:49.781Z,70.30
2023-04-03T06:20:16.349Z,70.23
2023-04-03T06:22:42.707Z,70.79
2023-04-03T06:25:10.533Z,71.96
2023-04-03T06:27:36.960Z,71.84
2023-04-03T06:30:04.047Z,71.48
2023-04-03T06:32:30.492Z,70.12
2023-04-03T06:34:56.951Z,71.13
2023-04-03T06:37:24.060Z,70.90
2023-04-03T06:39:50.420Z,70.86
2023-04-03T06:42:18.451Z,70.87
2023-04-03T06:44:44.892Z,68.91
2023-04-03T06:47:13.567Z,69.26
2023-04-03T06:49:40.109Z,68.39
2023-04-03T06:52:06.616Z,68.55
2023-04-03T06:54:33.360Z,68.36
2023-04-03T06:56:59.917Z,67.25
2023-04-03T06:59:28.159Z,68.27
2023-04-03T07:01:54.750Z,68.15
2023-04-03T07:04:21.308Z,67.83
2023-04-03T07:06:48.449Z,67.41
2023-04-03T07:09:15.795Z,65.83
2023-04-03T07:11:42.343Z,66.69
2023-04-03T07:14:08.865Z,65.05
2023-04-03T07:16:38.244Z,65.79
2023-04-03T07:19:05.690Z,64.97
2023-04-03T07:21:32.044Z,65.25
2023-04-03T07:23:58.389Z,65.25
2023-04-03T07:26:24.788Z,64.44
2023-04-03T07:28:51.155Z,63.79
2023-04-03T07:31:18.170Z,63.61
2023-04-03T07:33:46.257Z,63.32
2023-04-03T07:36:17.516Z,63.27
2023-04-03T07:38:43.911Z,62.82
2023-04-03T07:41:13.287Z,62.01
2023-04-03T07:43:39.648Z,62.67
2023-04-03T07:46:06.278Z,62.10
2023-04-03T07:48:32.796Z,61.92
2023-04-03T07:51:02.061Z,60.90
2023-04-03T07:53:28.539Z,60.85
2023-04-03T07:55:55.024Z,59.54
2023-04-03T07:58:21.439Z,59.15
2023-04-03T08:00:48.872Z,59.28
2023-04-03T08:03:15.897Z,59.11
2023-04-03T08:05:43.962Z,59.35
2023-04-03T08:08:12.942Z,59.15
2023-04-03T08:10:39.736Z,59.04
2023-04-03T08:13:07.352Z,58.55
2023-04-03T08:15:33.931Z,58.57
2023-04-03T08:18:00.497Z,58.04
2023-04-03T08:20:28.166Z,58.71
2023-04-03T08:22:54.745Z,59.11
2023-04-03T08:25:23.063Z,58.57
2023-04-03T08:27:49.561Z,57.75
2023-04-03T08:30:16.221Z,57.38
2023-04-03T08:32:42.625Z,56.74
2023-04-03T08:35:09.785Z,56.67
2023-04-03T08:37:36.614Z,56.04
2023-04-03T08:40:03.756Z,56.28
2023-04-03T08:42:42.874Z,55.96
2023-04-03T08:45:13.193Z,55.63
2023-04-03T08:47:46.242Z,54.71
2023-04-03T08:50:16.382Z,54.81
2023-04-03T08:52:47.064Z,53.88
2023-04-03T08:55:24.240Z,53.14
2023-04-03T08:57:58.192Z,52.11
2023-04-03T09:00:27.943Z,52.30
2023-04-03T09:02:56.702Z,51.21
2023-04-03T09:05:36.892Z,50.09
2023-04-03T09:08:10.355Z,49.72
2023-04-03T09:10:40.385Z,47.92
2023-04-03T09:13:14.920Z,45.45
2023-04-03T09:15:41.556Z,40.33
2023-04-03T09:18:15.884Z,44.15
2023-04-03T09:20:50.450Z,36.28
2023-04-03T09:23:27.449Z,37.72
2023-04-03T09:26:02.107Z,42.01
2023-04-03T09:28:35.674Z,42.43
2023-04-03T09:31:17.432Z,42.85
2023-04-03T09:33:44.355Z,41.46
2023-04-03T09:36:10.739Z,42.79
2023-04-03T09:38:37.155Z,41.73
2023-04-03T09:41:06.254Z,41.45
2023-04-03T09:43:34.830Z,42.22
2023-04-03T09:46:21.973Z,43.35
2023-04-03T09:48:54.998Z,43.33
2023-04-03T09:51:29.149Z,41.61
2023-04-03T09:53:56.409Z,41.93
2023-04-03T09:56:26.198Z,43.01
2023-04-03T09:59:09.267Z,42.45
2023-04-03T10:01:37.929Z,42.92
2023-04-03T10:04:10.378Z,41.99
2023-04-03T10:06:38.591Z,42.13
2023-04-03T10:09:07.507Z,42.58
2023-04-03T10:11:33.961Z,42.41
2023-04-03T10:14:03.565Z,41.81
2023-04-03T10:16:36.318Z,40.79
2023-04-03T10:19:31.475Z,39.20
2023-04-03T10:22:00.512Z,41.35
2023-04-03T10:24:36.973Z,42.09
2023-04-03T10:27:08.438Z,42.49
2023-04-03T10:29:43.087Z,42.23
2023-04-03T10:32:27.299Z,41.92
2023-04-03T10:35:05.094Z,41.06
2023-04-03T10:37:52.045Z,41.56
2023-04-03T10:40:29.067Z,42.70
2023-04-03T10:43:03.427Z,41.91
2023-04-03T10:45:45.633Z,40.42
2023-04-03T10:48:19.135Z,40.17
2023-04-03T10:50:52.208Z,40.85
2023-04-03T10:53:25.789Z,40.33
2023-04-03T10:55:58.064Z,39.33
2023-04-03T10:58:30.751Z,39.26
2023-04-03T11:01:03.852Z,38.86
2023-04-03T11:03:35.565Z,39.08
2023-04-03T11:06:05.850Z,40.01
2023-04-03T11:08:36.396Z,39.65
2023-04-03T11:11:07.163Z,39.78
2023-04-03T11:13:38.057Z,39.23
2023-04-03T11:16:07.087Z,38.56
2023-04-03T11:18:38.510Z,37.06
2023-04-03T11:21:09.114Z,37.56
2023-04-03T11:23:48.887Z,39.46
2023-04-03T11:26:18.685Z,40.35
2023-04-03T11:28:45.495Z,39.37
2023-04-03T11:31:33.220Z,39.17
2023-04-03T11:34:09.267Z,40.68
2023-04-03T11:36:41.842Z,41.34
2023-04-03T11:39:18.129Z,42.12
2023-04-03T11:41:44.643Z,41.80
2023-04-03T11:44:31.246Z,41.64
2023-04-03T11:47:00.579Z,41.22
2023-04-03T11:50:07.104Z,39.53
2023-04-03T11:53:02.202Z,39.46
2023-04-03T11:56:00.379Z,38.26
2023-04-03T11:58:28.592Z,37.84
2023-04-03T12:01:09.608Z,40.43
2023-04-03T12:04:06.295Z,38.17
2023-04-03T12:07:11.773Z,39.08
2023-04-03T12:10:02.041Z,38.32
2023-04-03T12:12:40.254Z,37.31
2023-04-03T12:15:19.555Z,36.65
2023-04-03T12:17:46.013Z,37.67
2023-04-03T12:20:44.974Z,38.44
2023-04-03T12:23:27.490Z,39.43
2023-04-03T12:26:05.292Z,40.82
2023-04-03T12:28:38.306Z,40.22
2023-04-03T12:31:05.624Z,39.87
2023-04-03T12:33:47.044Z,39.16
2023-04-03T12:36:19.181Z,38.72
2023-04-03T12:39:18.023Z,39.25
2023-04-03T12:41:52.859Z,39.89
2023-04-03T12:44:32.434Z,39.93
2023-04-03T12:47:01.676Z,38.04
2023-04-03T12:49:39.052Z,37.62
2023-04-03T12:52:17.730Z,37.50
2023-04-03T12:54:47.202Z,37.02
2023-04-03T12:57:19.604Z,37.07
2023-04-03T12:59:46.697Z,37.02
2023-04-03T13:02:22.212Z,37.73
2023-04-03T13:04:50.332Z,36.54
2023-04-03T13:07:22.211Z,37.87
2023-04-03T13:09:58.652Z,37.40
2023-04-03T13:12:25.294Z,37.45
2023-04-03T13:14:56.622Z,36.86
2023-04-03T13:17:23.264Z,36.59
2023-04-03T13:19:50.198Z,37.12
2023-04-03T13:22:27.391Z,36.88
2023-04-03T13:24:58.945Z,35.94
2023-04-03T13:27:25.556Z,35.62
2023-04-03T13:29:54.944Z,36.68
2023-04-03T13:32:23.914Z,36.37
2023-04-03T13:34:50.610Z,37.28
2023-04-03T13:37:22.627Z,37.27
2023-04-03T13:40:00.265Z,39.21
2023-04-03T13:42:29.318Z,38.13
2023-04-03T13:45:19.152Z,38.71
2023-04-03T13:47:48.029Z,38.20
2023-04-03T13:50:18.208Z,38.77
2023-04-03T13:52:47.182Z,36.85
2023-04-03T13:55:25.884Z,38.38
2023-04-03T13:58:22.811Z,37.74
2023-04-03T14:00:52.850Z,37.50
2023-04-03T14:03:24.602Z,37.75
2023-04-03T14:05:51.477Z,37.42
2023-04-03T14:08:19.422Z,36.98
2023-04-03T14:10:50.335Z,36.35
2023-04-03T14:13:19.242Z,36.24
2023-04-03T14:15:45.869Z,34.96
2023-04-03T14:18:12.747Z,35.11
2023-04-03T14:20:40.076Z,35.41
2023-04-03T14:23:06.761Z,36.05
2023-04-03T14:25:33.540Z,35.35
2023-04-03T14:28:01.717Z,37.30
2023-04-03T14:30:30.092Z,37.55
2023-04-03T14:32:57.047Z,38.01
2023-04-03T14:35:24.707Z,38.01
2023-04-03T14:37:52.118Z,37.88
2023-04-03T14:40:21.871Z,37.50
2023-04-03T14:42:48.374Z,36.63
2023-04-03T14:45:17.241Z,35.68
2023-04-03T14:47:47.296Z,34.88
2023-04-03T14:50:17.322Z,34.71
2023-04-03T14:52:44.872Z,34.91
2023-04-03T14:55:15.784Z,35.29
2023-04-03T14:57:42.310Z,36.06
2023-04-03T15:00:14.120Z,37.11
2023-04-03T15:02:42.371Z,38.02
2023-04-03T15:05:10.867Z,38.19
2023-04-03T15:07:41.326Z,38.44
2023-04-03T15:10:17.215Z,38.65
2023-04-03T15:12:44.152Z,38.90
2023-04-03T15:15:11.130Z,39.04
2023-04-03T15:17:37.926Z,38.30
2023-04-03T15:20:13.207Z,38.43
2023-04-03T15:22:39.662Z,35.71
2023-04-03T15:25:06.676Z,36.04
2023-04-03T15:27:33.085Z,35.14
2023-04-03T15:30:00.175Z,34.81
2023-04-03T15:32:26.575Z,37.23
2023-04-03T15:34:56.050Z,38.37
2023-04-03T15:37:24.527Z,38.92
2023-04-03T15:39:50.916Z,38.65
2023-04-03T15:42:17.375Z,38.79
2023-04-03T15:44:43.759Z,39.29
2023-04-03T15:47:10.431Z,38.77
2023-04-03T15:49:37.060Z,39.77
2023-04-03T15:52:04.159Z,39.43
2023-04-03T15:54:32.174Z,39.36
2023-04-03T15:56:58.599Z,39.25
2023-04-03T15:59:25.110Z,39.07
2023-04-03T16:01:53.083Z,38.93
2023-04-03T16:04:22.347Z,39.07
2023-04-03T16:06:49.359Z,37.25
2023-04-03T16:09:15.811Z,37.39
2023-04-03T16:11:43.494Z,37.93
2023-04-03T16:14:10.921Z,37.06
2023-04-03T16:16:37.989Z,37.19
2023-04-03T16:19:05.380Z,36.83
2023-04-03T16:21:32.702Z,36.83
2023-04-03T16:23:59.543Z,37.40
2023-04-03T16:26:26.153Z,38.15
2023-04-03T16:28:54.636Z,38.14
2023-04-03T16:31:22.519Z,38.07
2023-04-03T16:33:49.103Z,38.65
2023-04-03T16:36:15.672Z,39.01
2023-04-03T16:38:42.079Z,39.18
2023-04-03T16:41:08.454Z,39.05
2023-04-03T16:43:35.118Z,39.34
2023-04-03T16:46:02.796Z,39.73
2023-04-03T16:48:29.191Z,39.73
2023-04-03T16:50:55.596Z,39.96
2023-04-03T16:53:22.162Z,39.54
2023-04-03T16:55:48.597Z,39.48
2023-04-03T16:58:14.983Z,38.61
2023-04-03T17:00:41.736Z,38.72
2023-04-03T17:03:09.517Z,39.41
2023-04-03T17:05:36.617Z,39.14
2023-04-03T17:08:03.135Z,39.66
2023-04-03T17:10:29.849Z,39.72
2023-04-03T17:12:56.218Z,39.45
2023-04-03T17:15:24.292Z,38.72
2023-04-03T17:17:52.597Z,40.06
2023-04-03T17:20:20.677Z,39.87
2023-04-03T17:22:47.262Z,39.97
2023-04-03T17:25:13.650Z,39.78
2023-04-03T17:27:40.034Z,40.36
2023-04-03T17:30:08.680Z,40.26
2023-04-03T17:32:35.223Z,39.94
2023-04-03T17:35:01.634Z,40.53
2023-04-03T17:37:29.314Z,40.75
2023-04-03T17:39:55.770Z,40.84
2023-04-03T17:42:22.198Z,41.00
2023-04-03T17:44:48.574Z,40.24
2023-04-03T17:47:15.050Z,41.11
2023-04-03T17:49:41.695Z,41.55
2023-04-03T17:52:08.040Z,41.35
2023-04-03T17:54:35.751Z,41.76
2023-04-03T17:57:02.118Z,41.13
2023-04-03T17:59:28.507Z,41.82
2023-04-03T18:01:54.952Z,41.58
2023-04-03T18:04:21.433Z,40.98
2023-04-03T18:06:51.032Z,41.13
2023-04-03T18:09:19.277Z,41.16
2023-04-03T18:11:48.746Z,41.17
2023-04-03T18:14:19.243Z,41.25
2023-04-03T18:16:45.628Z,41.21
2023-04-03T18:19:23.025Z,41.41
2023-04-03T18:21:51.335Z,41.04
2023-04-03T18:24:20.240Z,41.63
2023-04-03T18:26:51.908Z,41.84
2023-04-03T18:29:18.715Z,41.74
2023-04-03T18:31:50.714Z,41.68
2023-04-03T18:34:17.342Z,42.18
2023-04-03T18:36:43.753Z,42.46
2023-04-03T18:39:10.168Z,42.87
2023-04-03T18:41:37.352Z,42.55
2023-04-03T18:44:08.609Z,42.32
2023-04-03T18:49:02.808Z,42.71
2023-04-03T18:51:29.399Z,42.81
2023-04-03T18:53:55.783Z,43.58
2023-04-03T18:56:22.408Z,43.83
2023-04-03T18:58:48.887Z,43.69
2023-04-03T19:01:16.782Z,44.26
2023-04-03T19:03:43.691Z,43.87
2023-04-03T19:06:10.410Z,43.74
2023-04-03T19:08:36.780Z,43.10
2023-04-03T19:11:03.346Z,43.64
2023-04-03T19:13:29.754Z,43.34
2023-04-03T19:15:56.174Z,43.35
2023-04-03T19:18:24.054Z,43.70
2023-04-03T19:20:50.441Z,43.00
2023-04-03T19:23:17.827Z,43.79
2023-04-03T19:25:44.334Z,43.28
2023-04-03T19:28:11.104Z,43.71
2023-04-03T19:30:38.597Z,43.66
2023-04-03T19:33:05.106Z,44.20
2023-04-03T19:35:32.841Z,43.37
2023-04-03T19:37:59.243Z,44.03
2023-04-03T19:40:25.746Z,43.49
2023-04-03T19:42:52.597Z,43.97
2023-04-03T19:45:19.796Z,44.27
2023-04-03T19:47:46.237Z,44.23
2023-04-03T19:50:12.745Z,43.50
2023-04-03T19:52:40.557Z,43.27
2023-04-03T19:55:07.883Z,44.28
2023-04-03T19:57:34.441Z,44.92
2023-04-03T20:00:00.881Z,45.04
2023-04-03T20:02:27.318Z,45.07
2023-04-03T20:04:53.788Z,44.89
2023-04-03T20:07:20.203Z,45.74
2023-04-03T20:09:47.991Z,46.47
2023-04-03T20:12:14.382Z,47.78
2023-04-03T20:14:40.816Z,47.17
2023-04-03T20:17:07.294Z,48.07
2023-04-03T20:19:33.702Z,47.96
2023-04-03T20:22:00.438Z,48.51
2023-04-03T20:24:27.117Z,47.83
2023-04-03T20:26:54.886Z,47.89
2023-04-03T20:29:21.321Z,47.43
2023-04-03T20:31:47.692Z,47.36
2023-04-03T20:34:14.068Z,47.54
2023-04-03T20:36:40.496Z,46.27
2023-04-03T20:39:06.913Z,47.14
2023-04-03T20:41:33.285Z,46.57
2023-04-03T20:44:01.133Z,46.88
2023-04-03T20:46:34.912Z,47.00
2023-04-03T20:49:08.989Z,46.61
2023-04-03T20:51:35.347Z,46.72
2023-04-03T20:54:01.710Z,45.94
2023-04-03T20:56:30.187Z,46.23
2023-04-03T20:58:56.560Z,46.57
2023-04-03T21:01:24.606Z,46.24
2023-04-03T21:03:56.019Z,46.20
2023-04-03T21:06:59.799Z,45.62
2023-04-03T21:10:03.609Z,45.50
2023-04-03T21:13:07.515Z,45.73
2023-04-03T21:15:48.828Z,46.04
2023-04-03T21:18:45.410Z,45.53
2023-04-03T21:21:19.789Z,44.94
2023-04-03T21:23:47.453Z,45.84
2023-04-03T21:26:14.191Z,45.21
2023-04-03T21:28:40.656Z,45.54
2023-04-03T21:31:07.049Z,45.95
2023-04-03T21:33:34.951Z,46.34
2023-04-03T21:36:01.350Z,46.05
2023-04-03T21:38:27.691Z,46.06
2023-04-03T21:40:56.323Z,46.24
2023-04-03T21:43:22.724Z,46.60
2023-04-03T21:45:52.889Z,46.57
2023-04-03T21:48:19.256Z,47.16
2023-04-03T21:50:46.985Z,46.29
2023-04-03T21:53:13.337Z,46.71
2023-04-03T21:55:39.675Z,46.28
2023-04-03T21:58:06.114Z,46.65
2023-04-03T22:00:32.668Z,46.73
2023-04-03T22:03:10.038Z,47.09
2023-04-03T22:05:37.169Z,46.95
2023-04-03T22:08:04.991Z,47.55
2023-04-03T22:10:31.371Z,46.81
2023-04-03T22:12:57.767Z,48.00
2023-04-03T22:15:24.132Z,47.35
2023-04-03T22:17:50.487Z,47.16
2023-04-03T22:20:16.869Z,46.86
2023-04-03T22:22:43.248Z,47.45
2023-04-03T22:25:11.206Z,48.59
2023-04-03T22:27:37.570Z,47.69
2023-04-03T22:30:04.737Z,47.64
2023-04-03T22:32:31.235Z,47.68
2023-04-03T22:34:57.600Z,47.36
2023-04-03T22:37:23.933Z,47.40
2023-04-03T22:39:50.280Z,46.81
2023-04-03T22:42:18.094Z,47.76
2023-04-03T22:44:44.451Z,47.73
2023-04-03T22:47:10.804Z,47.38
2023-04-03T22:49:37.582Z,47.40
2023-04-03T22:52:04.283Z,47.07
2023-04-03T22:54:30.664Z,46.97
2023-04-03T22:56:57.048Z,47.99
2023-04-03T22:59:24.813Z,48.44
2023-04-03T23:01:51.204Z,47.83
2023-04-03T23:04:17.990Z,48.33
2023-04-03T23:06:44.341Z,48.71
2023-04-03T23:09:10.717Z,48.39
2023-04-03T23:11:37.145Z,48.72
2023-04-03T23:14:03.525Z,48.55
2023-04-03T23:16:31.296Z,48.97
2023-04-03T23:18:57.883Z,47.57
2023-04-03T23:21:24.213Z,48.34
2023-04-03T23:23:50.549Z,48.20
2023-04-03T23:26:16.910Z,47.98
2023-04-03T23:28:43.254Z,49.07
2023-04-03T23:31:09.610Z,49.67
2023-04-03T23:33:37.930Z,49.44
2023-04-03T23:36:07.021Z,50.46
2023-04-03T23:38:33.514Z,51.00
2023-04-03T23:41:00.035Z,50.37
2023-04-03T23:43:26.513Z,50.86
2023-04-03T23:45:52.998Z,51.60
2023-04-03T23:48:19.622Z,50.66
2023-04-03T23:50:47.330Z,50.20
2023-04-03T23:53:13.726Z,52.27
2023-04-03T23:55:40.132Z,51.35
2023-04-03T23:58:06.509Z,51.97
